Taitung Airport
RCFN : now visible

Airfield :











YOU CAN JOIN US ON...

 
LOGIN :

Register | Disclaimer

   EN    FR    IT 

 









Legend :    VFR   Marginal VFR   IFR   Intensive IFR   Very Intensive IFR
Visi :
Ceiling :
>= 8 km
>= 3000ft
5 to 8 km
1000 to 3000 ft
1500m to 5 km
500 to 1000 ft
800 to 1500m
200 to 500 ft
< 800m
< 200 ft
Symbols :   Thunderstorms  Fog  Heavy snow  Heavy precipitations  Wind > 20 kt






- Airport Elevation : 143 ft
- IATA code : TTT


RCFN - Taitung

CURRENT METAR :
  • 190600Z 14007KT 080V190 9999 FEW020 35/26 Q1010 NOSIG RMK A2983

EXPIRED METARs :
  • 190530Z 13008KT 080V180 9999 FEW020 34/27 Q1010 NOSIG RMK A2983
  • 190500Z 14007KT 090V200 9999 FEW020 35/26 Q1010 NOSIG RMK A2984
  • 190430Z 13007KT 080V190 9999 FEW020 35/25 Q1010 NOSIG RMK A2985
  • 190400Z 13006KT 070V190 9999 FEW020 35/26 Q1010 NOSIG RMK A2985
  • 190330Z 11007KT 060V170 9999 FEW020 34/26 Q1011 NOSIG RMK A2986
  • 190300Z 12008KT 080V150 9999 FEW020 34/26 Q1011 NOSIG RMK A2987
  • 190230Z 11008KT 080V150 9999 FEW020 34/25 Q1011 NOSIG RMK A2986
  • 190200Z 10008KT 070V160 9999 FEW020 33/25 Q1011 NOSIG RMK A2987
  • 190130Z 11006KT 060V150 9999 FEW020 34/26 Q1011 NOSIG RMK A2987
  • 190100Z 08004KT 020V170 9999 FEW020 33/25 Q1011 NOSIG RMK A2987

TAF TAF RCFN
Valid from the 19 at 06:00 until the 20 at 06:00 UTC


190500Z 1906/2006 14005KT 9999 FEW015
BECMG 1911/1913 33005KT
BECMG 2000/2002 12005KT
RCAA FIR / Asia



MET'MAP, your aeronautical weather chart ! - Copyright ORBIFLY December 2007 - Disclaimer

ORBIFLY MET'MAP TEAM :

Programming & Development : Alexandra Zaïnal
Original concept : Baudouin d'Aumeries
Technical & hardware support : Manuel Goepfert
Assistance : Marc-Olivier Méhu




SOURCES & CREDITS :

   NOAA       Earth
Advisory